Gifford, IL (61847)

12:48 PM CDT on July 07, 2015 (GMT -0500)
Flatville | | Change Station
CLOSE
Current Station
Personal Weather Station
Location: Thomasboro, IL
Elevation: 686 ft
Nearby Weather Stations

Elev 686 ft 40.24 °N, 88.06 °W | Updated 39 seconds ago

Overcast
Overcast
62.7 °F
Feels Like 62.7 °F
N
15.0
Wind Variable Wind from NNE
Gusts 25.0 mph

Today
High -- | Low -- °F
--% Chance of Precip.
Yesterday
High -- | Low -- °F
Precip. -- in
5:29 AM 8:24 PM
Waning Gibbous, 63% visible
Pressure 29.98 in
Visibility 10.0 miles
Clouds Scattered Clouds 1000 ft
Overcast 2000 ft
Dew Point 59 °F
Humidity 87%
Rainfall 0.17 in
Snow Depth Not available.
UV 4 out of 12
Pollen .50 out of 12
Air Quality Not available.
Flu Activity Not available.
METAR KTIP 071735Z AUTO 02017G23KT 10SM SCT010 OVC020 18/14 A2998 RMK AO2 T01770144

More Conditions Fewer Conditions

Pressure 29.98 in
Visibility 10.0 miles
Clouds Scattered Clouds 1000 ft
Overcast 2000 ft
Dew Point 59 °F
Humidity 87%
Rainfall 0.17 in
Snow Depth Not available.
UV 4 out of 12
Pollen .50 out of 12
Air Quality Not available.
Flu Activity Not available.
METAR KTIP 071735Z AUTO 02017G23KT 10SM SCT010 OVC020 18/14 A2998 RMK AO2 T01770144

More Conditions Fewer Conditions

10-Day Weather Forecast

×

Almanac

Astronomy

Jul. 07, 2015 Rise Set
Actual Time
Civil Twilight
Nautical Twilight
Astronomical Twilight
Moon
Length of Visible Light
Length of Day
Tomorrow will be .
, % of the Moon is Illuminated

Today's Extremes

State Highs State Lows

Community

WunderPhotos

Upload Photos

1,835,858 photos uploaded!

WunderBlogs® & News

Nearby

Air Quality

  Air Quality AQ Index Pollutant
Not available.

Snow Depth

Station Depth Elevation

Earthquake Activity

City Distance Mag. Time & Date
Minimum magnitude displayed is 2.5.

Coastal Water Temperatures

Place Temperature

Stations

Nearby Weather Stations

Station Location Temp. Windchill Dew Point Humidity Wind Precip. Elev Updated Type